createdAt,value
2023-05-25T00:00:03.968Z,18.20
2023-05-25T00:02:33.893Z,18.19
2023-05-25T00:05:05.084Z,18.19
2023-05-25T00:07:33.732Z,18.14
2023-05-25T00:10:02.110Z,18.13
2023-05-25T00:12:30.780Z,18.11
2023-05-25T00:14:59.198Z,18.08
2023-05-25T00:17:32.197Z,18.10
2023-05-25T00:20:08.203Z,18.10
2023-05-25T00:22:39.374Z,18.12
2023-05-25T00:25:08.701Z,18.14
2023-05-25T00:27:37.099Z,18.13
2023-05-25T00:30:07.833Z,18.13
2023-05-25T00:32:36.209Z,18.10
2023-05-25T00:35:04.826Z,18.05
2023-05-25T00:37:33.235Z,17.94
2023-05-25T00:40:03.170Z,17.91
2023-05-25T00:42:32.300Z,17.82
2023-05-25T00:45:00.721Z,17.72
2023-05-25T00:47:29.465Z,17.74
2023-05-25T00:49:59.162Z,17.70
2023-05-25T00:52:28.266Z,17.60
2023-05-25T00:54:59.572Z,17.54
2023-05-25T00:57:34.320Z,17.49
2023-05-25T01:00:09.152Z,17.48
2023-05-25T01:02:42.303Z,17.51
2023-05-25T01:05:13.456Z,17.52
2023-05-25T01:07:45.417Z,17.43
2023-05-25T01:10:17.055Z,17.49
2023-05-25T01:12:47.906Z,17.51
2023-05-25T01:15:16.454Z,17.47
2023-05-25T01:17:46.923Z,17.42
2023-05-25T01:20:15.885Z,17.38
2023-05-25T01:22:51.543Z,17.37
2023-05-25T01:25:25.403Z,17.34
2023-05-25T01:27:58.953Z,17.32
2023-05-25T01:30:28.394Z,17.31
2023-05-25T01:32:58.401Z,17.34
2023-05-25T01:35:28.439Z,17.29
2023-05-25T01:38:00.522Z,17.28
2023-05-25T01:40:29.272Z,17.26
2023-05-25T01:42:57.681Z,17.26
2023-05-25T01:45:28.172Z,17.25
2023-05-25T01:48:04.777Z,17.19
2023-05-25T01:50:40.740Z,16.98
2023-05-25T01:53:13.915Z,17.25
2023-05-25T01:55:49.251Z,17.14
2023-05-25T01:58:19.844Z,17.17
2023-05-25T02:00:51.055Z,17.12
2023-05-25T02:03:20.219Z,17.10
2023-05-25T02:05:49.814Z,17.05
2023-05-25T02:08:21.203Z,17.02
2023-05-25T02:10:49.678Z,16.99
2023-05-25T02:13:18.187Z,17.01
2023-05-25T02:15:46.843Z,17.03
2023-05-25T02:18:17.923Z,17.01
2023-05-25T02:20:47.764Z,16.68
2023-05-25T02:23:18.741Z,17.03
2023-05-25T02:25:51.812Z,17.06
2023-05-25T02:28:20.321Z,17.02
2023-05-25T02:30:48.930Z,17.02
2023-05-25T02:33:18.882Z,17.05
2023-05-25T02:35:47.435Z,17.07
2023-05-25T02:38:15.853Z,17.07
2023-05-25T02:40:44.238Z,17.11
2023-05-25T02:43:14.096Z,17.15
2023-05-25T02:45:43.107Z,17.16
2023-05-25T02:48:11.783Z,17.15
2023-05-25T02:50:40.158Z,17.12
2023-05-25T02:53:11.963Z,17.05
2023-05-25T02:55:40.708Z,17.02
2023-05-25T02:58:13.430Z,16.99
2023-05-25T03:01:01.408Z,16.98
2023-05-25T03:03:30.496Z,17.01
2023-05-25T03:05:59.030Z,17.02
2023-05-25T03:08:27.614Z,16.99
2023-05-25T03:10:56.228Z,17.01
2023-05-25T03:13:26.272Z,16.98
2023-05-25T03:15:54.675Z,16.91
2023-05-25T03:18:24.736Z,16.81
2023-05-25T03:20:53.263Z,16.75
2023-05-25T03:23:21.718Z,16.69
2023-05-25T03:25:52.592Z,16.72
2023-05-25T03:28:23.040Z,16.77
2023-05-25T03:30:53.023Z,16.78
2023-05-25T03:33:21.444Z,16.75
2023-05-25T03:35:51.243Z,16.73
2023-05-25T03:38:19.662Z,16.73
2023-05-25T03:40:48.712Z,16.74
2023-05-25T03:43:17.116Z,16.55
2023-05-25T03:45:48.423Z,16.74
2023-05-25T03:48:19.056Z,16.73
2023-05-25T03:50:48.420Z,16.67
2023-05-25T03:53:17.703Z,16.63
2023-05-25T03:55:46.843Z,16.59
2023-05-25T03:58:16.254Z,16.61
2023-05-25T04:00:44.840Z,16.63
2023-05-25T04:03:13.271Z,16.62
2023-05-25T04:05:43.613Z,16.63
2023-05-25T04:08:12.187Z,16.60
2023-05-25T04:10:42.806Z,16.57
2023-05-25T04:13:11.222Z,16.58
2023-05-25T04:15:39.711Z,16.56
2023-05-25T04:18:12.075Z,16.52
2023-05-25T04:20:40.794Z,16.48
2023-05-25T04:23:13.291Z,16.42
2023-05-25T04:25:45.765Z,16.37
2023-05-25T04:28:16.010Z,16.33
2023-05-25T04:31:02.423Z,16.30
2023-05-25T04:33:45.587Z,16.31
2023-05-25T04:36:35.525Z,16.30
2023-05-25T04:39:08.102Z,16.29
2023-05-25T04:41:41.198Z,16.27
2023-05-25T04:44:11.807Z,16.32
2023-05-25T04:46:44.764Z,16.41
2023-05-25T04:49:19.905Z,16.47
2023-05-25T04:51:48.462Z,16.27
2023-05-25T04:54:18.479Z,16.34
2023-05-25T04:56:47.113Z,16.40
2023-05-25T04:59:16.431Z,16.44
2023-05-25T05:01:46.015Z,16.54
2023-05-25T05:04:18.087Z,16.58
2023-05-25T05:06:47.473Z,16.62
2023-05-25T05:09:21.689Z,16.70
2023-05-25T05:11:50.562Z,16.69
2023-05-25T05:14:20.442Z,16.67
2023-05-25T05:16:50.436Z,16.66
2023-05-25T05:19:18.886Z,16.68
2023-05-25T05:21:47.790Z,16.76
2023-05-25T05:24:18.360Z,16.81
2023-05-25T05:26:58.112Z,16.86
2023-05-25T05:29:31.483Z,16.85
2023-05-25T05:31:59.984Z,16.92
2023-05-25T05:34:28.394Z,17.03
2023-05-25T05:36:58.794Z,17.12
2023-05-25T05:39:29.241Z,17.16
2023-05-25T05:41:59.661Z,17.19
2023-05-25T05:44:29.477Z,17.21
2023-05-25T05:47:01.830Z,17.23
2023-05-25T05:49:32.141Z,17.23
2023-05-25T05:52:02.391Z,17.23
2023-05-25T05:54:32.237Z,17.25
2023-05-25T05:57:07.867Z,17.26
2023-05-25T05:59:36.260Z,17.27
2023-05-25T06:02:04.850Z,17.34
2023-05-25T06:04:33.762Z,17.37
2023-05-25T06:07:02.211Z,17.40
2023-05-25T06:09:30.796Z,17.43
2023-05-25T06:12:01.875Z,17.48
2023-05-25T06:14:32.054Z,17.53
2023-05-25T06:17:03.620Z,17.55
2023-05-25T06:19:32.177Z,17.60
2023-05-25T06:22:00.725Z,17.67
2023-05-25T06:24:29.182Z,17.76
2023-05-25T06:26:57.620Z,17.79
2023-05-25T06:29:27.065Z,17.81
2023-05-25T06:31:57.247Z,17.86
2023-05-25T06:34:26.143Z,17.88
2023-05-25T06:36:54.578Z,17.71
2023-05-25T06:39:22.981Z,17.87
2023-05-25T06:41:52.331Z,17.87
2023-05-25T06:44:30.839Z,17.87
2023-05-25T06:47:04.424Z,17.90
2023-05-25T06:49:33.056Z,17.94
2023-05-25T06:52:01.774Z,17.97
2023-05-25T06:54:31.312Z,17.96
2023-05-25T06:56:59.739Z,18.01
2023-05-25T06:59:28.219Z,18.01
2023-05-25T07:01:59.178Z,17.99
2023-05-25T07:04:29.730Z,18.01
2023-05-25T07:06:58.167Z,18.06
2023-05-25T07:09:26.545Z,18.08
2023-05-25T07:11:55.112Z,18.12
2023-05-25T07:14:23.472Z,18.11
2023-05-25T07:16:51.960Z,18.10
2023-05-25T07:19:20.347Z,18.12
2023-05-25T07:21:50.164Z,18.14
2023-05-25T07:24:19.183Z,18.15
2023-05-25T07:26:48.437Z,18.18
2023-05-25T07:29:17.074Z,18.21
2023-05-25T07:31:47.281Z,18.23
2023-05-25T07:34:16.417Z,18.24
2023-05-25T07:36:44.885Z,18.21
2023-05-25T07:39:14.754Z,18.21
2023-05-25T07:41:43.242Z,18.25
2023-05-25T07:44:14.073Z,18.24
2023-05-25T07:46:42.542Z,18.24
2023-05-25T07:49:15.966Z,18.28
2023-05-25T07:51:44.909Z,18.32
2023-05-25T07:54:14.850Z,18.31
2023-05-25T07:56:43.333Z,18.34
2023-05-25T07:59:12.761Z,18.36
2023-05-25T08:01:41.401Z,18.45
2023-05-25T08:04:09.983Z,18.51
2023-05-25T08:06:38.707Z,18.59
2023-05-25T08:09:08.208Z,18.69
2023-05-25T08:11:38.117Z,18.71
2023-05-25T08:14:06.423Z,18.81
2023-05-25T08:16:34.905Z,18.89
2023-05-25T08:19:03.260Z,19.02
2023-05-25T08:21:35.071Z,19.18
2023-05-25T08:24:05.224Z,19.28
2023-05-25T08:26:52.903Z,19.39
2023-05-25T08:29:24.111Z,19.56
2023-05-25T08:31:52.475Z,19.66
2023-05-25T08:34:23.513Z,19.70
2023-05-25T08:36:51.920Z,19.67
2023-05-25T08:39:20.398Z,19.65
2023-05-25T08:41:51.187Z,19.58
2023-05-25T08:44:20.275Z,19.55
2023-05-25T08:46:50.599Z,19.59
2023-05-25T08:49:19.152Z,19.57
2023-05-25T08:51:51.011Z,19.56
2023-05-25T08:54:20.748Z,19.54
2023-05-25T08:56:52.302Z,19.55
2023-05-25T08:59:33.463Z,19.58
2023-05-25T09:02:23.807Z,19.58
2023-05-25T09:04:52.368Z,19.58
2023-05-25T09:07:21.383Z,19.63
2023-05-25T09:09:50.493Z,19.65
2023-05-25T09:12:19.950Z,19.72
2023-05-25T09:14:49.024Z,19.77
2023-05-25T09:17:20.124Z,19.85
2023-05-25T09:19:49.197Z,19.88
2023-05-25T09:22:17.837Z,20.04
2023-05-25T09:24:46.647Z,20.08
2023-05-25T09:27:19.168Z,20.17
2023-05-25T09:29:49.712Z,20.21
2023-05-25T09:32:20.313Z,20.20
2023-05-25T09:34:48.993Z,20.20
2023-05-25T09:37:19.407Z,20.24
2023-05-25T09:39:49.182Z,20.31
2023-05-25T09:42:18.714Z,20.36
2023-05-25T09:44:47.219Z,20.35
2023-05-25T09:47:17.123Z,20.39
2023-05-25T09:49:49.648Z,20.54
2023-05-25T09:52:18.223Z,20.61
2023-05-25T09:54:47.581Z,20.73
2023-05-25T09:57:17.023Z,20.81
2023-05-25T09:59:46.164Z,20.82
2023-05-25T10:02:15.286Z,20.79
2023-05-25T10:04:43.801Z,20.78
2023-05-25T10:07:16.280Z,20.78
2023-05-25T10:09:47.790Z,20.76
2023-05-25T10:12:20.272Z,20.74
2023-05-25T10:14:52.332Z,20.67
2023-05-25T10:17:25.605Z,20.63
2023-05-25T10:19:58.758Z,20.67
2023-05-25T10:22:33.895Z,20.58
2023-05-25T10:25:10.788Z,20.54
2023-05-25T10:27:42.610Z,20.11
2023-05-25T10:30:11.864Z,20.20
2023-05-25T10:32:41.795Z,20.22
2023-05-25T10:35:11.464Z,20.26
2023-05-25T10:37:41.718Z,20.41
2023-05-25T10:40:11.063Z,20.51
2023-05-25T10:42:40.259Z,20.66
2023-05-25T10:45:10.526Z,20.79
2023-05-25T10:47:42.957Z,20.94
2023-05-25T10:50:20.827Z,21.07
2023-05-25T10:53:00.131Z,21.28
2023-05-25T10:55:32.026Z,21.46
2023-05-25T10:58:10.684Z,21.53
2023-05-25T11:00:39.983Z,21.77
2023-05-25T11:03:08.891Z,21.86
2023-05-25T11:05:39.501Z,21.83
2023-05-25T11:08:12.404Z,22.00
2023-05-25T11:10:45.848Z,22.06
2023-05-25T11:13:25.546Z,22.10
2023-05-25T11:16:09.330Z,22.10
2023-05-25T11:18:43.831Z,22.17
2023-05-25T11:21:24.232Z,22.10
2023-05-25T11:23:58.749Z,22.14
2023-05-25T11:26:30.868Z,22.02
2023-05-25T11:29:00.283Z,22.26
2023-05-25T11:31:39.720Z,22.31
2023-05-25T11:34:12.059Z,22.34
2023-05-25T11:36:41.484Z,22.44
2023-05-25T11:39:20.908Z,22.58
2023-05-25T11:41:56.215Z,22.69
2023-05-25T11:44:29.741Z,22.78
2023-05-25T11:46:58.669Z,22.79
2023-05-25T11:49:27.088Z,22.69
2023-05-25T11:51:55.730Z,22.67
2023-05-25T11:54:27.256Z,22.67
2023-05-25T11:56:59.437Z,22.43
2023-05-25T11:59:30.566Z,22.26
2023-05-25T12:02:02.308Z,22.55
2023-05-25T12:04:33.122Z,22.58
2023-05-25T12:07:04.937Z,22.68
2023-05-25T12:09:35.268Z,22.72
2023-05-25T12:12:05.366Z,22.77
2023-05-25T12:14:37.438Z,22.70
2023-05-25T12:17:07.713Z,22.52
2023-05-25T12:19:36.585Z,22.40
2023-05-25T12:22:05.173Z,22.31
2023-05-25T12:24:35.094Z,22.33
2023-05-25T12:27:06.033Z,22.47
2023-05-25T12:29:34.440Z,22.64
2023-05-25T12:32:06.985Z,22.69
2023-05-25T12:34:35.869Z,22.65
2023-05-25T12:37:04.215Z,22.51
2023-05-25T12:39:39.527Z,22.60
2023-05-25T12:42:15.306Z,22.78
2023-05-25T12:44:44.581Z,22.92
2023-05-25T12:47:14.760Z,22.78
2023-05-25T12:49:45.271Z,22.67
2023-05-25T12:52:33.527Z,22.59
2023-05-25T12:55:20.535Z,22.66
2023-05-25T12:57:52.574Z,22.65
2023-05-25T13:00:23.745Z,22.62
2023-05-25T13:02:52.591Z,22.39
2023-05-25T13:05:25.170Z,22.29
2023-05-25T13:07:55.499Z,22.24
2023-05-25T13:10:26.275Z,22.12
2023-05-25T13:12:57.335Z,22.01
2023-05-25T13:15:27.064Z,22.00
2023-05-25T13:17:56.451Z,22.01
2023-05-25T13:20:26.544Z,22.13
2023-05-25T13:22:55.918Z,22.20
2023-05-25T13:25:27.804Z,22.33
2023-05-25T13:27:58.033Z,22.33
2023-05-25T13:30:27.965Z,22.44
2023-05-25T13:32:56.423Z,22.50
2023-05-25T13:35:37.921Z,22.60
2023-05-25T13:38:06.731Z,22.69
2023-05-25T13:40:36.606Z,22.78
2023-05-25T13:43:05.036Z,22.83
2023-05-25T13:45:33.632Z,22.81
2023-05-25T13:48:02.151Z,22.81
2023-05-25T13:50:30.708Z,22.83
2023-05-25T13:52:59.270Z,22.84
2023-05-25T13:55:27.728Z,22.89
2023-05-25T13:57:57.502Z,22.86
2023-05-25T14:00:25.953Z,22.69
2023-05-25T14:02:54.527Z,22.57
2023-05-25T14:05:24.172Z,22.56
2023-05-25T14:07:55.677Z,22.53
2023-05-25T14:10:24.745Z,22.65
2023-05-25T14:12:53.115Z,22.75
2023-05-25T14:15:22.965Z,22.77
2023-05-25T14:17:51.374Z,22.76
2023-05-25T14:20:25.865Z,22.73
2023-05-25T14:22:55.049Z,22.65
2023-05-25T14:25:23.360Z,22.69
2023-05-25T14:27:51.857Z,22.69
2023-05-25T14:30:20.307Z,22.12
2023-05-25T14:32:50.239Z,22.49
2023-05-25T14:35:18.701Z,22.40
2023-05-25T14:37:47.015Z,22.36
2023-05-25T14:40:15.442Z,22.33
2023-05-25T14:42:44.223Z,22.22
2023-05-25T14:45:15.255Z,22.14
2023-05-25T14:47:44.434Z,22.07
2023-05-25T14:50:14.349Z,22.02
2023-05-25T14:52:43.304Z,21.97
2023-05-25T14:55:12.039Z,21.99
2023-05-25T14:57:40.536Z,21.99
2023-05-25T15:00:10.170Z,21.97
2023-05-25T15:02:38.927Z,21.98
2023-05-25T15:05:08.701Z,22.01
2023-05-25T15:07:38.634Z,22.03
2023-05-25T15:10:08.012Z,22.07
2023-05-25T15:12:36.467Z,22.08
2023-05-25T15:15:05.228Z,22.06
2023-05-25T15:17:33.657Z,22.09
2023-05-25T15:20:02.363Z,22.05
2023-05-25T15:22:30.827Z,22.01
2023-05-25T15:25:02.549Z,21.97
2023-05-25T15:27:32.364Z,21.89
2023-05-25T15:30:00.736Z,21.88
2023-05-25T15:32:29.341Z,21.86
2023-05-25T15:34:57.753Z,21.87
2023-05-25T15:37:26.140Z,21.88
2023-05-25T15:39:54.514Z,21.97
2023-05-25T15:42:24.399Z,22.05
2023-05-25T15:44:52.869Z,22.09
2023-05-25T15:47:21.418Z,22.10
2023-05-25T15:49:49.823Z,22.05
2023-05-25T15:52:18.204Z,22.08
2023-05-25T15:54:47.591Z,22.12
2023-05-25T15:57:15.970Z,22.07
2023-05-25T15:59:45.822Z,22.05
2023-05-25T16:02:14.382Z,21.90
2023-05-25T16:04:42.916Z,21.87
2023-05-25T16:07:11.405Z,21.80
2023-05-25T16:09:39.809Z,21.78
2023-05-25T16:12:08.604Z,21.65
2023-05-25T16:14:37.045Z,21.51
2023-05-25T16:17:07.218Z,21.45
2023-05-25T16:19:35.641Z,21.33
2023-05-25T16:22:04.088Z,21.28
2023-05-25T16:24:32.532Z,21.14
2023-05-25T16:27:01.066Z,21.12
2023-05-25T16:29:29.599Z,21.07
2023-05-25T16:31:58.028Z,21.05
2023-05-25T16:34:27.877Z,20.97
2023-05-25T16:36:57.297Z,20.94
2023-05-25T16:39:25.643Z,20.92
2023-05-25T16:41:54.122Z,20.84
2023-05-25T16:44:22.459Z,20.80
2023-05-25T16:46:50.815Z,20.76
2023-05-25T16:49:19.298Z,20.72
2023-05-25T16:51:49.077Z,20.66
2023-05-25T16:54:17.608Z,20.62
2023-05-25T16:56:46.372Z,20.50
2023-05-25T16:59:14.714Z,20.55
2023-05-25T17:01:43.211Z,20.60
2023-05-25T17:04:11.795Z,20.62
2023-05-25T17:06:40.313Z,20.63
2023-05-25T17:09:11.926Z,20.67
2023-05-25T17:11:40.431Z,20.65
2023-05-25T17:14:08.993Z,20.63
2023-05-25T17:16:37.473Z,20.62
2023-05-25T17:19:05.869Z,20.61
2023-05-25T17:21:35.036Z,20.60
2023-05-25T17:24:03.642Z,20.65
2023-05-25T17:26:33.504Z,20.61
2023-05-25T17:29:01.947Z,20.59
2023-05-25T17:31:30.345Z,20.60
2023-05-25T17:33:58.830Z,20.62
2023-05-25T17:36:27.379Z,20.58
2023-05-25T17:38:55.835Z,20.56
2023-05-25T17:41:25.292Z,20.55
2023-05-25T17:43:55.008Z,20.60
2023-05-25T17:46:23.434Z,20.58
2023-05-25T17:48:51.957Z,20.60
2023-05-25T17:51:21.758Z,20.57
2023-05-25T17:53:50.363Z,20.54
2023-05-25T17:56:19.711Z,20.50
2023-05-25T17:58:48.370Z,20.43
2023-05-25T18:01:18.283Z,20.38
2023-05-25T18:03:50.773Z,20.34
2023-05-25T18:06:19.357Z,20.32
2023-05-25T18:08:47.757Z,20.31
2023-05-25T18:11:16.208Z,20.30
2023-05-25T18:13:44.657Z,20.26
2023-05-25T18:16:13.054Z,20.27
2023-05-25T18:18:42.836Z,20.28
2023-05-25T18:21:11.301Z,20.24
2023-05-25T18:23:39.615Z,20.20
2023-05-25T18:26:08.075Z,20.17
2023-05-25T18:28:36.351Z,20.13
2023-05-25T18:31:04.824Z,20.09
2023-05-25T18:33:33.201Z,20.04
2023-05-25T18:36:03.017Z,20.03
2023-05-25T18:38:31.418Z,19.99
2023-05-25T18:40:59.822Z,19.97
2023-05-25T18:43:28.236Z,19.89
2023-05-25T18:45:56.636Z,19.93
2023-05-25T18:48:25.980Z,19.90
2023-05-25T18:50:54.409Z,19.84
2023-05-25T18:53:24.277Z,19.80
2023-05-25T18:55:52.865Z,19.75
2023-05-25T18:58:22.207Z,19.72
2023-05-25T19:00:50.681Z,19.65
2023-05-25T19:03:19.301Z,19.62
2023-05-25T19:05:47.831Z,19.52
2023-05-25T19:08:16.246Z,19.49
2023-05-25T19:10:46.092Z,19.42
2023-05-25T19:13:14.552Z,19.38
2023-05-25T19:15:43.256Z,19.38
2023-05-25T19:18:11.811Z,19.37
2023-05-25T19:20:40.265Z,19.37
2023-05-25T19:23:08.740Z,19.37
2023-05-25T19:25:37.150Z,19.35
2023-05-25T19:28:06.939Z,19.31
2023-05-25T19:30:35.278Z,19.25
2023-05-25T19:33:04.079Z,19.23
2023-05-25T19:35:32.630Z,19.19
2023-05-25T19:38:02.094Z,19.13
2023-05-25T19:40:30.929Z,19.08
2023-05-25T19:42:59.622Z,19.04
2023-05-25T19:45:29.438Z,19.02
2023-05-25T19:47:58.062Z,18.98
2023-05-25T19:50:30.550Z,18.92
2023-05-25T19:52:59.639Z,18.87
2023-05-25T19:55:28.517Z,18.81
2023-05-25T19:57:57.023Z,18.77
2023-05-25T20:00:26.974Z,18.71
2023-05-25T20:02:57.359Z,18.67
2023-05-25T20:05:25.774Z,18.59
2023-05-25T20:07:56.032Z,18.50
2023-05-25T20:10:24.432Z,18.41
2023-05-25T20:12:52.859Z,18.38
2023-05-25T20:15:21.358Z,18.38
2023-05-25T20:17:49.789Z,18.33
2023-05-25T20:20:19.716Z,18.31
2023-05-25T20:22:48.197Z,18.26
2023-05-25T20:25:16.630Z,18.20
2023-05-25T20:27:45.047Z,18.12
2023-05-25T20:30:17.109Z,18.06
2023-05-25T20:32:45.898Z,18.01
2023-05-25T20:35:14.847Z,18.01
2023-05-25T20:37:44.760Z,17.99
2023-05-25T20:40:13.226Z,17.92
2023-05-25T20:42:41.786Z,17.85
2023-05-25T20:45:10.990Z,17.83
2023-05-25T20:47:41.844Z,17.83
2023-05-25T20:50:10.480Z,17.79
2023-05-25T20:52:39.007Z,17.76
2023-05-25T20:55:09.961Z,17.77
2023-05-25T20:57:38.343Z,17.70
2023-05-25T21:00:08.410Z,17.64
2023-05-25T21:02:36.923Z,17.58
2023-05-25T21:05:05.828Z,17.49
2023-05-25T21:07:34.244Z,17.44
2023-05-25T21:10:04.309Z,17.43
2023-05-25T21:12:34.223Z,17.36
2023-05-25T21:15:02.648Z,17.24
2023-05-25T21:17:31.398Z,17.17
2023-05-25T21:19:59.840Z,17.16
2023-05-25T21:22:28.268Z,17.12
2023-05-25T21:24:56.752Z,17.08
2023-05-25T21:27:25.125Z,17.04
2023-05-25T21:29:55.706Z,16.99
2023-05-25T21:32:24.205Z,16.89
2023-05-25T21:34:52.991Z,16.86
2023-05-25T21:37:21.951Z,16.76
2023-05-25T21:39:50.570Z,16.74
2023-05-25T21:42:18.983Z,16.77
2023-05-25T21:44:47.416Z,16.73
2023-05-25T21:47:17.389Z,16.69
2023-05-25T21:49:45.913Z,16.62
2023-05-25T21:52:20.302Z,16.56
2023-05-25T21:54:48.874Z,16.53
2023-05-25T21:57:17.337Z,16.53
2023-05-25T21:59:45.781Z,16.53
2023-05-25T22:02:14.218Z,16.49
2023-05-25T22:04:44.185Z,16.47
2023-05-25T22:07:12.700Z,16.40
2023-05-25T22:09:41.133Z,16.29
2023-05-25T22:12:12.157Z,16.22
2023-05-25T22:14:40.635Z,16.11
2023-05-25T22:17:10.130Z,16.02
2023-05-25T22:19:38.725Z,15.96
2023-05-25T22:22:08.519Z,15.96
2023-05-25T22:24:37.013Z,15.91
2023-05-25T22:27:06.150Z,15.88
2023-05-25T22:29:34.572Z,15.82
2023-05-25T22:32:03.012Z,15.81
2023-05-25T22:34:31.561Z,15.70
2023-05-25T22:36:59.977Z,15.65
2023-05-25T22:39:29.854Z,15.62
2023-05-25T22:41:58.298Z,15.54
2023-05-25T22:44:26.673Z,15.51
2023-05-25T22:46:55.206Z,15.50
2023-05-25T22:49:23.770Z,15.47
2023-05-25T22:51:52.136Z,15.46
2023-05-25T22:54:20.674Z,15.40
2023-05-25T22:56:51.307Z,15.37
2023-05-25T22:59:19.917Z,15.36
2023-05-25T23:01:48.426Z,15.30
2023-05-25T23:04:17.108Z,15.26
2023-05-25T23:06:45.661Z,15.25
2023-05-25T23:09:14.245Z,15.16
2023-05-25T23:11:42.578Z,15.20
2023-05-25T23:14:12.976Z,15.17
2023-05-25T23:16:41.778Z,15.12
2023-05-25T23:19:10.221Z,15.11
2023-05-25T23:21:38.695Z,15.04
2023-05-25T23:24:07.745Z,15.04
2023-05-25T23:26:36.200Z,15.00
2023-05-25T23:29:04.599Z,14.94
2023-05-25T23:31:34.800Z,14.93
2023-05-25T23:34:03.214Z,14.90
2023-05-25T23:36:31.669Z,14.92
2023-05-25T23:39:00.153Z,14.93
2023-05-25T23:41:28.745Z,14.90
2023-05-25T23:43:57.872Z,14.79
2023-05-25T23:46:27.863Z,14.55
2023-05-25T23:48:57.780Z,14.63
2023-05-25T23:51:26.309Z,14.59
2023-05-25T23:53:54.701Z,14.61
2023-05-25T23:56:23.210Z,14.43
2023-05-25T23:58:51.700Z,14.61
